Погода Фу-Крадунгна неделю

Дансай, Таиланд

02 - 08 марта
  • 02марта
    Сегодня
    +19°
    +31°
    Практически безоблачно
    ВремяПогодаТемператураВлажностьДавлениеВетер, м/сВероятность осадков
    01:00Ясно и безоблачно+25°C63 %739 мм2.4 м/с2 %
    04:00Ясно и безоблачно+21°C75 %739 мм1.4 м/с6 %
    07:00Ясно и безоблачно+20°C75 %740 мм1.5 м/с3 %
    10:00Практически безоблачно+25°C59 %742 мм1.5 м/с3 %
    13:00Практически безоблачно+29°C52 %740 мм2.0 м/с4 %
    16:00Практически безоблачно+30°C50 %738 мм2.6 м/с12 %
    19:00Ясно и безоблачно+26°C66 %738 мм1.2 м/с3 %
    22:00Ясно и безоблачно+25°C68 %739 мм0.7 м/с2 %
  • 03марта
    Воскресенье
    +22°
    +33°
    Практически безоблачно
    ВремяПогодаТемператураВлажностьДавлениеВетер, м/сВероятность осадков
    01:00Практически безоблачно+24°C69 %739 мм1.0 м/с2 %
    04:00Ясно и безоблачно+21°C81 %738 мм0.6 м/с4 %
    07:00Ясно и безоблачно+20°C85 %740 мм0.6 м/с3 %
    10:00Облачно с прояснениями+26°C57 %741 мм1.3 м/с9 %
    13:00Практически безоблачно+31°C46 %739 мм1.8 м/с12 %
    16:00Небольшая облачность и лёгкий дождик+32°C46 %736 мм1.5 м/с24 %
    19:00Ясно и безоблачно+28°C63 %736 мм1.4 м/с4 %
    22:00Ясно и безоблачно+25°C72 %737 мм1.3 м/с2 %
  • 04марта
    Понедельник
    +21°
    +36°
    Ясно и безоблачно
    ВремяПогодаТемператураВлажностьДавлениеВетер, м/сВероятность осадков
    01:00Ясно и безоблачно+24°C76 %736 мм1.2 м/с2 %
    04:00Ясно и безоблачно+23°C76 %736 мм1.4 м/с2 %
    07:00Ясно и безоблачно+22°C79 %737 мм1.2 м/с2 %
    10:00Ясно и безоблачно+31°C51 %738 мм1.6 м/с2 %
    13:00Ясно и безоблачно+36°C32 %736 мм2.9 м/с4 %
    16:00Ясно и безоблачно+35°C31 %734 мм2.7 м/с2 %
    19:00Ясно и безоблачно+29°C47 %734 мм1.9 м/с2 %
    22:00Ясно и безоблачно+26°C58 %736 мм1.4 м/с2 %
  • 05марта
    Вторник
    +20°
    +38°
    Ясно и безоблачно
    ВремяПогодаТемператураВлажностьДавлениеВетер, м/сВероятность осадков
    01:00Ясно и безоблачно+23°C62 %735 мм1.4 м/с2 %
    04:00Ясно и безоблачно+23°C64 %735 мм1.9 м/с2 %
    07:00Ясно и безоблачно+22°C90 %736 мм1.9 м/с2 %
    10:00Ясно и безоблачно+31°C53 %738 мм1.5 м/с2 %
    13:00Ясно и безоблачно+37°C28 %736 мм1.5 м/с2 %
    16:00Ясно и безоблачно+36°C25 %733 мм2.1 м/с2 %
    19:00Ясно и безоблачно+30°C42 %734 мм2.0 м/с2 %
    22:00Ясно и безоблачно+26°C51 %735 мм1.5 м/с2 %
  • 06марта
    Среда
    +23°
    +38°
    Ясно и безоблачно
    ВремяПогодаТемператураВлажностьДавлениеВетер, м/сВероятность осадков
    01:00Ясно и безоблачно+23°C58 %734 мм1.0 м/с2 %
    04:00Ясно и безоблачно+22°C58 %733 мм1.7 м/с2 %
    07:00Ясно и безоблачно+21°C56 %735 мм1.7 м/с2 %
    10:00Ясно и безоблачно+32°C38 %737 мм0.6 м/с2 %
    13:00Ясно и безоблачно+37°C24 %735 мм1.1 м/с2 %
    16:00Небольшая облачность+37°C22 %733 мм1.8 м/с2 %
    19:00Ясно и безоблачно+34°C26 %733 мм0.9 м/с2 %
    22:00Ясно и безоблачно+27°C41 %734 мм1.8 м/с2 %
Мы используем cookies
Соглашаюсь